sensor_id;sensor_type;location;lat;lon;timestamp;P1;durP1;ratioP1;P2;durP2;ratioP2
38089;SDS011;23904;52.322;10.232;2023-12-20T00:01:06;20.33;;;12.05;;
38089;SDS011;23904;52.322;10.232;2023-12-20T00:03:31;16.55;;;11.95;;
38089;SDS011;23904;52.322;10.232;2023-12-20T00:05:57;17.88;;;11.30;;
38089;SDS011;23904;52.322;10.232;2023-12-20T00:08:23;19.02;;;11.88;;
38089;SDS011;23904;52.322;10.232;2023-12-20T00:10:48;17.17;;;11.38;;
38089;SDS011;23904;52.322;10.232;2023-12-20T00:13:14;17.58;;;11.80;;
38089;SDS011;23904;52.322;10.232;2023-12-20T00:15:39;20.55;;;11.40;;
38089;SDS011;23904;52.322;10.232;2023-12-20T00:18:05;21.52;;;12.95;;
38089;SDS011;23904;52.322;10.232;2023-12-20T00:20:30;18.05;;;11.63;;
38089;SDS011;23904;52.322;10.232;2023-12-20T00:22:57;19.95;;;11.80;;
38089;SDS011;23904;52.322;10.232;2023-12-20T00:25:23;20.63;;;12.32;;
38089;SDS011;23904;52.322;10.232;2023-12-20T00:27:49;20.35;;;13.30;;
38089;SDS011;23904;52.322;10.232;2023-12-20T00:30:15;18.58;;;13.32;;
38089;SDS011;23904;52.322;10.232;2023-12-20T00:32:41;21.52;;;12.70;;
38089;SDS011;23904;52.322;10.232;2023-12-20T00:35:11;19.50;;;13.20;;
38089;SDS011;23904;52.322;10.232;2023-12-20T00:37:40;24.67;;;12.45;;
38089;SDS011;23904;52.322;10.232;2023-12-20T00:40:09;22.10;;;12.88;;
38089;SDS011;23904;52.322;10.232;2023-12-20T00:42:35;24.92;;;15.20;;
38089;SDS011;23904;52.322;10.232;2023-12-20T00:45:01;23.80;;;14.65;;
38089;SDS011;23904;52.322;10.232;2023-12-20T00:47:29;26.42;;;16.08;;
38089;SDS011;23904;52.322;10.232;2023-12-20T00:49:58;28.23;;;15.80;;
38089;SDS011;23904;52.322;10.232;2023-12-20T00:52:25;25.70;;;15.00;;
38089;SDS011;23904;52.322;10.232;2023-12-20T00:54:50;31.23;;;15.30;;
38089;SDS011;23904;52.322;10.232;2023-12-20T00:57:17;27.80;;;14.82;;
38089;SDS011;23904;52.322;10.232;2023-12-20T00:59:42;27.95;;;14.40;;
38089;SDS011;23904;52.322;10.232;2023-12-20T01:02:08;26.05;;;13.85;;
38089;SDS011;23904;52.322;10.232;2023-12-20T01:04:34;27.17;;;13.77;;
38089;SDS011;23904;52.322;10.232;2023-12-20T01:07:00;26.00;;;12.60;;
38089;SDS011;23904;52.322;10.232;2023-12-20T01:09:25;28.08;;;12.20;;
38089;SDS011;23904;52.322;10.232;2023-12-20T01:11:52;23.25;;;10.60;;
38089;SDS011;23904;52.322;10.232;2023-12-20T01:14:18;18.83;;;10.15;;
38089;SDS011;23904;52.322;10.232;2023-12-20T01:16:44;20.55;;;10.30;;
38089;SDS011;23904;52.322;10.232;2023-12-20T01:19:09;24.05;;;9.10;;
38089;SDS011;23904;52.322;10.232;2023-12-20T01:21:35;21.35;;;9.40;;
38089;SDS011;23904;52.322;10.232;2023-12-20T01:24:00;27.15;;;9.45;;
38089;SDS011;23904;52.322;10.232;2023-12-20T01:26:26;20.40;;;8.95;;
38089;SDS011;23904;52.322;10.232;2023-12-20T01:28:52;20.85;;;9.13;;
38089;SDS011;23904;52.322;10.232;2023-12-20T01:31:18;25.10;;;9.63;;
38089;SDS011;23904;52.322;10.232;2023-12-20T01:33:44;29.95;;;10.18;;
38089;SDS011;23904;52.322;10.232;2023-12-20T01:36:10;39.83;;;9.55;;
38089;SDS011;23904;52.322;10.232;2023-12-20T01:38:36;34.30;;;8.93;;
38089;SDS011;23904;52.322;10.232;2023-12-20T01:41:02;32.35;;;9.73;;
38089;SDS011;23904;52.322;10.232;2023-12-20T01:43:28;36.13;;;9.10;;
38089;SDS011;23904;52.322;10.232;2023-12-20T01:45:55;26.02;;;7.60;;
38089;SDS011;23904;52.322;10.232;2023-12-20T01:48:22;15.38;;;7.22;;
38089;SDS011;23904;52.322;10.232;2023-12-20T01:50:49;23.17;;;7.93;;
38089;SDS011;23904;52.322;10.232;2023-12-20T01:53:16;36.63;;;6.75;;
38089;SDS011;23904;52.322;10.232;2023-12-20T01:55:44;17.90;;;5.93;;
38089;SDS011;23904;52.322;10.232;2023-12-20T01:58:10;18.83;;;5.00;;
38089;SDS011;23904;52.322;10.232;2023-12-20T02:00:37;19.52;;;5.93;;
38089;SDS011;23904;52.322;10.232;2023-12-20T02:03:06;17.17;;;5.55;;
38089;SDS011;23904;52.322;10.232;2023-12-20T02:05:33;24.30;;;5.40;;
38089;SDS011;23904;52.322;10.232;2023-12-20T02:08:00;15.48;;;4.38;;
38089;SDS011;23904;52.322;10.232;2023-12-20T02:10:26;29.90;;;5.75;;
38089;SDS011;23904;52.322;10.232;2023-12-20T02:12:55;14.38;;;4.03;;
38089;SDS011;23904;52.322;10.232;2023-12-20T02:15:20;30.60;;;4.53;;
38089;SDS011;23904;52.322;10.232;2023-12-20T02:17:46;16.13;;;4.57;;
38089;SDS011;23904;52.322;10.232;2023-12-20T02:20:13;19.48;;;4.07;;
38089;SDS011;23904;52.322;10.232;2023-12-20T02:22:39;32.05;;;4.50;;
38089;SDS011;23904;52.322;10.232;2023-12-20T02:25:05;19.52;;;3.80;;
38089;SDS011;23904;52.322;10.232;2023-12-20T02:27:31;13.93;;;3.83;;
38089;SDS011;23904;52.322;10.232;2023-12-20T02:29:56;14.50;;;3.45;;
38089;SDS011;23904;52.322;10.232;2023-12-20T02:32:22;19.10;;;4.43;;
38089;SDS011;23904;52.322;10.232;2023-12-20T02:34:53;17.55;;;3.88;;
38089;SDS011;23904;52.322;10.232;2023-12-20T02:37:19;19.92;;;3.45;;
38089;SDS011;23904;52.322;10.232;2023-12-20T02:39:45;15.50;;;3.22;;
38089;SDS011;23904;52.322;10.232;2023-12-20T02:42:11;20.52;;;3.65;;
38089;SDS011;23904;52.322;10.232;2023-12-20T02:44:36;21.85;;;2.92;;
38089;SDS011;23904;52.322;10.232;2023-12-20T02:47:03;17.75;;;2.95;;
38089;SDS011;23904;52.322;10.232;2023-12-20T02:49:28;13.65;;;2.75;;
38089;SDS011;23904;52.322;10.232;2023-12-20T02:51:54;13.27;;;2.83;;
38089;SDS011;23904;52.322;10.232;2023-12-20T02:54:20;18.55;;;3.55;;
38089;SDS011;23904;52.322;10.232;2023-12-20T02:56:46;24.23;;;2.65;;
38089;SDS011;23904;52.322;10.232;2023-12-20T02:59:11;17.25;;;2.97;;
38089;SDS011;23904;52.322;10.232;2023-12-20T03:01:41;24.42;;;2.75;;
38089;SDS011;23904;52.322;10.232;2023-12-20T03:04:14;15.35;;;2.47;;
38089;SDS011;23904;52.322;10.232;2023-12-20T03:06:39;21.10;;;2.63;;
38089;SDS011;23904;52.322;10.232;2023-12-20T03:09:05;20.70;;;2.53;;
38089;SDS011;23904;52.322;10.232;2023-12-20T03:11:30;13.02;;;2.60;;
38089;SDS011;23904;52.322;10.232;2023-12-20T03:13:56;16.25;;;2.75;;
38089;SDS011;23904;52.322;10.232;2023-12-20T03:16:22;21.90;;;4.63;;
38089;SDS011;23904;52.322;10.232;2023-12-20T03:18:48;14.25;;;2.45;;
38089;SDS011;23904;52.322;10.232;2023-12-20T03:21:13;14.95;;;3.08;;
38089;SDS011;23904;52.322;10.232;2023-12-20T03:23:40;21.73;;;2.85;;
38089;SDS011;23904;52.322;10.232;2023-12-20T03:26:07;11.30;;;1.98;;
38089;SDS011;23904;52.322;10.232;2023-12-20T03:28:33;9.70;;;2.25;;
38089;SDS011;23904;52.322;10.232;2023-12-20T03:30:59;15.85;;;1.95;;
38089;SDS011;23904;52.322;10.232;2023-12-20T03:33:25;19.52;;;2.47;;
38089;SDS011;23904;52.322;10.232;2023-12-20T03:35:51;18.38;;;2.75;;
38089;SDS011;23904;52.322;10.232;2023-12-20T03:38:16;20.10;;;2.55;;
38089;SDS011;23904;52.322;10.232;2023-12-20T03:40:42;10.35;;;2.72;;
38089;SDS011;23904;52.322;10.232;2023-12-20T03:43:07;13.10;;;2.30;;
38089;SDS011;23904;52.322;10.232;2023-12-20T03:45:33;20.23;;;2.92;;
38089;SDS011;23904;52.322;10.232;2023-12-20T03:47:59;16.42;;;2.78;;
38089;SDS011;23904;52.322;10.232;2023-12-20T03:50:25;14.27;;;2.88;;
38089;SDS011;23904;52.322;10.232;2023-12-20T03:52:51;19.58;;;2.83;;
38089;SDS011;23904;52.322;10.232;2023-12-20T03:55:17;8.50;;;2.15;;
38089;SDS011;23904;52.322;10.232;2023-12-20T03:57:43;22.95;;;2.47;;
38089;SDS011;23904;52.322;10.232;2023-12-20T04:00:08;13.65;;;2.53;;
38089;SDS011;23904;52.322;10.232;2023-12-20T04:02:36;14.70;;;2.10;;
38089;SDS011;23904;52.322;10.232;2023-12-20T04:05:05;6.45;;;1.30;;
38089;SDS011;23904;52.322;10.232;2023-12-20T04:07:32;12.27;;;2.40;;
38089;SDS011;23904;52.322;10.232;2023-12-20T04:09:58;15.85;;;1.73;;
38089;SDS011;23904;52.322;10.232;2023-12-20T04:12:23;14.18;;;1.65;;
38089;SDS011;23904;52.322;10.232;2023-12-20T04:14:49;9.52;;;1.83;;
38089;SDS011;23904;52.322;10.232;2023-12-20T04:17:15;18.60;;;2.67;;
38089;SDS011;23904;52.322;10.232;2023-12-20T04:19:41;12.68;;;1.85;;
38089;SDS011;23904;52.322;10.232;2023-12-20T04:22:07;12.85;;;2.67;;
38089;SDS011;23904;52.322;10.232;2023-12-20T04:24:33;10.48;;;2.10;;
38089;SDS011;23904;52.322;10.232;2023-12-20T04:26:59;10.55;;;1.83;;
38089;SDS011;23904;52.322;10.232;2023-12-20T04:29:25;11.40;;;1.88;;
38089;SDS011;23904;52.322;10.232;2023-12-20T04:31:50;9.93;;;1.40;;
38089;SDS011;23904;52.322;10.232;2023-12-20T04:34:16;13.05;;;1.70;;
38089;SDS011;23904;52.322;10.232;2023-12-20T04:36:42;6.57;;;1.73;;
38089;SDS011;23904;52.322;10.232;2023-12-20T04:39:08;11.63;;;1.92;;
38089;SDS011;23904;52.322;10.232;2023-12-20T04:41:34;17.38;;;2.97;;
38089;SDS011;23904;52.322;10.232;2023-12-20T04:43:59;15.95;;;2.95;;
38089;SDS011;23904;52.322;10.232;2023-12-20T04:46:25;18.25;;;2.90;;
38089;SDS011;23904;52.322;10.232;2023-12-20T04:48:51;19.30;;;2.83;;
38089;SDS011;23904;52.322;10.232;2023-12-20T04:51:17;13.40;;;2.30;;
38089;SDS011;23904;52.322;10.232;2023-12-20T04:53:42;16.83;;;3.15;;
38089;SDS011;23904;52.322;10.232;2023-12-20T04:56:08;19.58;;;2.58;;
38089;SDS011;23904;52.322;10.232;2023-12-20T04:58:33;17.60;;;2.15;;
38089;SDS011;23904;52.322;10.232;2023-12-20T05:00:59;8.38;;;2.10;;
38089;SDS011;23904;52.322;10.232;2023-12-20T05:03:25;15.82;;;4.13;;
38089;SDS011;23904;52.322;10.232;2023-12-20T05:05:50;14.02;;;2.47;;
38089;SDS011;23904;52.322;10.232;2023-12-20T05:08:16;11.82;;;2.40;;
38089;SDS011;23904;52.322;10.232;2023-12-20T05:10:41;9.50;;;2.53;;
38089;SDS011;23904;52.322;10.232;2023-12-20T05:13:07;17.92;;;2.40;;
38089;SDS011;23904;52.322;10.232;2023-12-20T05:15:33;19.20;;;2.65;;
38089;SDS011;23904;52.322;10.232;2023-12-20T05:17:58;8.32;;;2.00;;
38089;SDS011;23904;52.322;10.232;2023-12-20T05:20:24;15.90;;;2.30;;
38089;SDS011;23904;52.322;10.232;2023-12-20T05:22:50;15.98;;;3.22;;
38089;SDS011;23904;52.322;10.232;2023-12-20T05:25:15;14.00;;;2.08;;
38089;SDS011;23904;52.322;10.232;2023-12-20T05:27:41;14.95;;;2.33;;
38089;SDS011;23904;52.322;10.232;2023-12-20T05:30:06;16.10;;;3.25;;
38089;SDS011;23904;52.322;10.232;2023-12-20T05:32:32;13.75;;;3.13;;
38089;SDS011;23904;52.322;10.232;2023-12-20T05:34:58;14.70;;;3.10;;
38089;SDS011;23904;52.322;10.232;2023-12-20T05:37:23;19.60;;;2.53;;
38089;SDS011;23904;52.322;10.232;2023-12-20T05:39:49;14.52;;;3.60;;
38089;SDS011;23904;52.322;10.232;2023-12-20T05:42:14;17.75;;;3.10;;
38089;SDS011;23904;52.322;10.232;2023-12-20T05:44:40;9.13;;;3.08;;
38089;SDS011;23904;52.322;10.232;2023-12-20T05:47:06;17.05;;;2.67;;
38089;SDS011;23904;52.322;10.232;2023-12-20T05:49:31;18.13;;;2.92;;
38089;SDS011;23904;52.322;10.232;2023-12-20T05:51:57;15.85;;;3.08;;
38089;SDS011;23904;52.322;10.232;2023-12-20T05:54:22;17.15;;;4.28;;
38089;SDS011;23904;52.322;10.232;2023-12-20T05:56:48;26.83;;;4.07;;
38089;SDS011;23904;52.322;10.232;2023-12-20T05:59:13;18.20;;;3.30;;
38089;SDS011;23904;52.322;10.232;2023-12-20T06:01:39;28.92;;;3.97;;
38089;SDS011;23904;52.322;10.232;2023-12-20T06:04:05;19.08;;;3.65;;
38089;SDS011;23904;52.322;10.232;2023-12-20T06:06:33;15.63;;;3.35;;
38089;SDS011;23904;52.322;10.232;2023-12-20T06:08:59;18.02;;;3.17;;
38089;SDS011;23904;52.322;10.232;2023-12-20T06:11:24;23.27;;;3.78;;
38089;SDS011;23904;52.322;10.232;2023-12-20T06:13:51;11.27;;;3.67;;
38089;SDS011;23904;52.322;10.232;2023-12-20T06:16:18;20.80;;;3.65;;
38089;SDS011;23904;52.322;10.232;2023-12-20T06:18:43;12.68;;;3.42;;
38089;SDS011;23904;52.322;10.232;2023-12-20T06:21:09;17.65;;;3.20;;
38089;SDS011;23904;52.322;10.232;2023-12-20T06:23:37;22.10;;;4.15;;
38089;SDS011;23904;52.322;10.232;2023-12-20T06:26:03;20.38;;;3.53;;
38089;SDS011;23904;52.322;10.232;2023-12-20T06:28:30;13.43;;;3.13;;
38089;SDS011;23904;52.322;10.232;2023-12-20T06:30:55;12.63;;;4.88;;
38089;SDS011;23904;52.322;10.232;2023-12-20T06:33:22;12.77;;;4.30;;
38089;SDS011;23904;52.322;10.232;2023-12-20T06:35:48;15.75;;;3.60;;
38089;SDS011;23904;52.322;10.232;2023-12-20T06:38:14;16.48;;;2.75;;
38089;SDS011;23904;52.322;10.232;2023-12-20T06:40:40;14.40;;;2.60;;
38089;SDS011;23904;52.322;10.232;2023-12-20T06:43:07;27.70;;;3.80;;
38089;SDS011;23904;52.322;10.232;2023-12-20T06:45:32;13.05;;;3.33;;
38089;SDS011;23904;52.322;10.232;2023-12-20T06:47:58;18.50;;;2.92;;
38089;SDS011;23904;52.322;10.232;2023-12-20T06:50:24;17.45;;;3.30;;
38089;SDS011;23904;52.322;10.232;2023-12-20T06:52:49;20.08;;;3.58;;
38089;SDS011;23904;52.322;10.232;2023-12-20T06:55:15;17.92;;;3.42;;
38089;SDS011;23904;52.322;10.232;2023-12-20T06:57:42;20.17;;;3.20;;
38089;SDS011;23904;52.322;10.232;2023-12-20T07:00:08;25.13;;;6.60;;
38089;SDS011;23904;52.322;10.232;2023-12-20T07:02:37;20.05;;;3.72;;
38089;SDS011;23904;52.322;10.232;2023-12-20T07:05:03;22.50;;;4.10;;
38089;SDS011;23904;52.322;10.232;2023-12-20T07:07:29;15.85;;;3.72;;
38089;SDS011;23904;52.322;10.232;2023-12-20T07:09:55;16.38;;;3.80;;
38089;SDS011;23904;52.322;10.232;2023-12-20T07:12:20;16.55;;;4.15;;
38089;SDS011;23904;52.322;10.232;2023-12-20T07:14:46;25.38;;;4.07;;
38089;SDS011;23904;52.322;10.232;2023-12-20T07:17:12;15.50;;;3.15;;
38089;SDS011;23904;52.322;10.232;2023-12-20T07:19:39;25.65;;;3.50;;
38089;SDS011;23904;52.322;10.232;2023-12-20T07:22:06;23.15;;;5.05;;
38089;SDS011;23904;52.322;10.232;2023-12-20T07:24:32;17.08;;;3.65;;
38089;SDS011;23904;52.322;10.232;2023-12-20T07:26:59;16.88;;;4.07;;
38089;SDS011;23904;52.322;10.232;2023-12-20T07:29:25;16.75;;;3.83;;
38089;SDS011;23904;52.322;10.232;2023-12-20T07:31:52;12.48;;;2.97;;
38089;SDS011;23904;52.322;10.232;2023-12-20T07:34:18;13.20;;;3.30;;
38089;SDS011;23904;52.322;10.232;2023-12-20T07:36:45;16.75;;;3.67;;
38089;SDS011;23904;52.322;10.232;2023-12-20T07:39:10;20.63;;;3.30;;
38089;SDS011;23904;52.322;10.232;2023-12-20T07:41:36;22.77;;;3.38;;
38089;SDS011;23904;52.322;10.232;2023-12-20T07:44:03;16.60;;;2.90;;
38089;SDS011;23904;52.322;10.232;2023-12-20T07:46:30;16.02;;;2.97;;
38089;SDS011;23904;52.322;10.232;2023-12-20T07:48:55;27.05;;;3.67;;
38089;SDS011;23904;52.322;10.232;2023-12-20T07:51:21;16.90;;;3.22;;
38089;SDS011;23904;52.322;10.232;2023-12-20T07:53:47;19.65;;;4.70;;
38089;SDS011;23904;52.322;10.232;2023-12-20T07:56:16;15.65;;;3.50;;
38089;SDS011;23904;52.322;10.232;2023-12-20T07:58:43;28.17;;;4.47;;
38089;SDS011;23904;52.322;10.232;2023-12-20T08:01:10;20.73;;;4.85;;
38089;SDS011;23904;52.322;10.232;2023-12-20T08:03:36;15.18;;;3.90;;
38089;SDS011;23904;52.322;10.232;2023-12-20T08:06:02;25.08;;;4.53;;
38089;SDS011;23904;52.322;10.232;2023-12-20T08:08:28;23.58;;;4.05;;
38089;SDS011;23904;52.322;10.232;2023-12-20T08:10:54;19.42;;;3.70;;
38089;SDS011;23904;52.322;10.232;2023-12-20T08:13:19;19.67;;;4.75;;
38089;SDS011;23904;52.322;10.232;2023-12-20T08:15:50;22.55;;;4.05;;
38089;SDS011;23904;52.322;10.232;2023-12-20T08:18:15;20.00;;;4.25;;
38089;SDS011;23904;52.322;10.232;2023-12-20T08:20:41;15.88;;;3.72;;
38089;SDS011;23904;52.322;10.232;2023-12-20T08:23:06;18.65;;;4.28;;
38089;SDS011;23904;52.322;10.232;2023-12-20T08:25:32;16.45;;;3.78;;
38089;SDS011;23904;52.322;10.232;2023-12-20T08:27:57;22.25;;;3.42;;
38089;SDS011;23904;52.322;10.232;2023-12-20T08:30:23;15.98;;;3.20;;
38089;SDS011;23904;52.322;10.232;2023-12-20T08:32:48;25.02;;;3.75;;
38089;SDS011;23904;52.322;10.232;2023-12-20T08:35:14;21.40;;;3.92;;
38089;SDS011;23904;52.322;10.232;2023-12-20T08:37:39;20.67;;;4.38;;
38089;SDS011;23904;52.322;10.232;2023-12-20T08:40:05;22.55;;;4.35;;
38089;SDS011;23904;52.322;10.232;2023-12-20T08:42:31;32.80;;;5.07;;
38089;SDS011;23904;52.322;10.232;2023-12-20T08:44:57;15.02;;;4.30;;
38089;SDS011;23904;52.322;10.232;2023-12-20T08:47:23;18.45;;;3.80;;
38089;SDS011;23904;52.322;10.232;2023-12-20T08:49:49;19.20;;;4.57;;
38089;SDS011;23904;52.322;10.232;2023-12-20T08:52:15;24.85;;;4.63;;
38089;SDS011;23904;52.322;10.232;2023-12-20T08:54:41;22.65;;;3.63;;
38089;SDS011;23904;52.322;10.232;2023-12-20T08:57:06;23.45;;;7.05;;
38089;SDS011;23904;52.322;10.232;2023-12-20T08:59:32;20.10;;;3.88;;
38089;SDS011;23904;52.322;10.232;2023-12-20T09:01:58;22.35;;;4.47;;
38089;SDS011;23904;52.322;10.232;2023-12-20T09:04:24;27.98;;;5.35;;
38089;SDS011;23904;52.322;10.232;2023-12-20T09:06:50;15.95;;;4.45;;
38089;SDS011;23904;52.322;10.232;2023-12-20T09:09:15;21.08;;;5.03;;
38089;SDS011;23904;52.322;10.232;2023-12-20T09:11:41;19.77;;;4.15;;
38089;SDS011;23904;52.322;10.232;2023-12-20T09:14:07;22.67;;;4.70;;
38089;SDS011;23904;52.322;10.232;2023-12-20T09:16:33;18.92;;;4.82;;
38089;SDS011;23904;52.322;10.232;2023-12-20T09:18:58;25.02;;;5.30;;
38089;SDS011;23904;52.322;10.232;2023-12-20T09:21:24;14.50;;;5.18;;
38089;SDS011;23904;52.322;10.232;2023-12-20T09:23:49;14.68;;;3.95;;
38089;SDS011;23904;52.322;10.232;2023-12-20T09:26:15;20.65;;;4.63;;
38089;SDS011;23904;52.322;10.232;2023-12-20T09:28:40;19.77;;;4.57;;
38089;SDS011;23904;52.322;10.232;2023-12-20T09:31:06;19.70;;;4.45;;
38089;SDS011;23904;52.322;10.232;2023-12-20T09:33:32;17.85;;;4.00;;
38089;SDS011;23904;52.322;10.232;2023-12-20T09:35:58;10.55;;;3.78;;
38089;SDS011;23904;52.322;10.232;2023-12-20T09:38:24;22.00;;;4.05;;
38089;SDS011;23904;52.322;10.232;2023-12-20T09:40:50;25.52;;;4.55;;
38089;SDS011;23904;52.322;10.232;2023-12-20T09:43:15;14.65;;;4.22;;
38089;SDS011;23904;52.322;10.232;2023-12-20T09:45:47;16.63;;;3.88;;
38089;SDS011;23904;52.322;10.232;2023-12-20T09:48:14;21.75;;;5.38;;
38089;SDS011;23904;52.322;10.232;2023-12-20T09:50:44;27.67;;;4.88;;
38089;SDS011;23904;52.322;10.232;2023-12-20T09:53:11;19.40;;;4.72;;
38089;SDS011;23904;52.322;10.232;2023-12-20T09:55:41;12.48;;;3.63;;
38089;SDS011;23904;52.322;10.232;2023-12-20T09:58:07;18.75;;;5.72;;
38089;SDS011;23904;52.322;10.232;2023-12-20T10:00:34;21.10;;;4.35;;
38089;SDS011;23904;52.322;10.232;2023-12-20T10:03:00;15.98;;;3.78;;
38089;SDS011;23904;52.322;10.232;2023-12-20T10:05:30;11.93;;;3.53;;
38089;SDS011;23904;52.322;10.232;2023-12-20T10:07:57;14.20;;;3.53;;
38089;SDS011;23904;52.322;10.232;2023-12-20T10:10:24;13.38;;;4.35;;
38089;SDS011;23904;52.322;10.232;2023-12-20T10:13:02;23.15;;;4.35;;
38089;SDS011;23904;52.322;10.232;2023-12-20T10:18:00;14.13;;;4.00;;
38089;SDS011;23904;52.322;10.232;2023-12-20T10:20:29;18.70;;;3.85;;
38089;SDS011;23904;52.322;10.232;2023-12-20T10:22:56;23.70;;;4.82;;
38089;SDS011;23904;52.322;10.232;2023-12-20T10:25:25;18.60;;;3.83;;
38089;SDS011;23904;52.322;10.232;2023-12-20T10:28:08;16.13;;;3.33;;
38089;SDS011;23904;52.322;10.232;2023-12-20T10:30:44;12.98;;;3.40;;
38089;SDS011;23904;52.322;10.232;2023-12-20T10:33:10;16.48;;;3.85;;
38089;SDS011;23904;52.322;10.232;2023-12-20T10:35:36;14.15;;;3.90;;
38089;SDS011;23904;52.322;10.232;2023-12-20T10:38:04;15.68;;;3.80;;
38089;SDS011;23904;52.322;10.232;2023-12-20T10:40:31;17.90;;;3.22;;
38089;SDS011;23904;52.322;10.232;2023-12-20T10:43:04;16.08;;;3.63;;
38089;SDS011;23904;52.322;10.232;2023-12-20T10:45:30;12.70;;;3.25;;
38089;SDS011;23904;52.322;10.232;2023-12-20T10:47:56;16.55;;;3.45;;
38089;SDS011;23904;52.322;10.232;2023-12-20T10:50:24;19.50;;;4.97;;
38089;SDS011;23904;52.322;10.232;2023-12-20T10:52:52;12.50;;;2.80;;
38089;SDS011;23904;52.322;10.232;2023-12-20T10:55:21;20.70;;;3.58;;
38089;SDS011;23904;52.322;10.232;2023-12-20T10:57:50;19.13;;;3.38;;
38089;SDS011;23904;52.322;10.232;2023-12-20T11:00:17;14.38;;;3.75;;
38089;SDS011;23904;52.322;10.232;2023-12-20T11:02:44;19.70;;;4.10;;
38089;SDS011;23904;52.322;10.232;2023-12-20T11:05:15;13.68;;;3.20;;
38089;SDS011;23904;52.322;10.232;2023-12-20T11:08:12;13.07;;;3.47;;
38089;SDS011;23904;52.322;10.232;2023-12-20T11:13:48;13.45;;;3.50;;
38089;SDS011;23904;52.322;10.232;2023-12-20T11:16:27;13.93;;;3.80;;
38089;SDS011;23904;52.322;10.232;2023-12-20T11:18:52;20.95;;;4.72;;
38089;SDS011;23904;52.322;10.232;2023-12-20T11:21:18;12.90;;;3.42;;
38089;SDS011;23904;52.322;10.232;2023-12-20T11:23:44;13.50;;;3.70;;
38089;SDS011;23904;52.322;10.232;2023-12-20T11:26:10;22.65;;;4.55;;
38089;SDS011;23904;52.322;10.232;2023-12-20T11:28:36;14.30;;;4.05;;
38089;SDS011;23904;52.322;10.232;2023-12-20T11:31:02;16.75;;;3.63;;
38089;SDS011;23904;52.322;10.232;2023-12-20T11:33:35;11.93;;;3.83;;
38089;SDS011;23904;52.322;10.232;2023-12-20T11:36:03;16.40;;;3.13;;
38089;SDS011;23904;52.322;10.232;2023-12-20T11:38:37;9.52;;;3.30;;
38089;SDS011;23904;52.322;10.232;2023-12-20T11:41:05;17.25;;;3.70;;
38089;SDS011;23904;52.322;10.232;2023-12-20T11:43:38;11.55;;;3.47;;
38089;SDS011;23904;52.322;10.232;2023-12-20T11:46:08;23.05;;;4.05;;
38089;SDS011;23904;52.322;10.232;2023-12-20T11:48:35;20.10;;;3.78;;
38089;SDS011;23904;52.322;10.232;2023-12-20T11:51:08;16.38;;;4.07;;
38089;SDS011;23904;52.322;10.232;2023-12-20T11:53:39;16.10;;;3.60;;
38089;SDS011;23904;52.322;10.232;2023-12-20T11:56:06;13.57;;;4.55;;
38089;SDS011;23904;52.322;10.232;2023-12-20T11:58:32;12.75;;;4.45;;
38089;SDS011;23904;52.322;10.232;2023-12-20T12:00:58;13.20;;;4.05;;
38089;SDS011;23904;52.322;10.232;2023-12-20T12:03:24;11.75;;;3.85;;
38089;SDS011;23904;52.322;10.232;2023-12-20T12:05:50;9.02;;;2.90;;
38089;SDS011;23904;52.322;10.232;2023-12-20T12:08:19;14.60;;;3.78;;
38089;SDS011;23904;52.322;10.232;2023-12-20T12:10:44;13.85;;;3.53;;
38089;SDS011;23904;52.322;10.232;2023-12-20T12:13:10;16.88;;;4.70;;
38089;SDS011;23904;52.322;10.232;2023-12-20T12:15:36;15.57;;;2.85;;
38089;SDS011;23904;52.322;10.232;2023-12-20T12:18:02;5.75;;;1.60;;
38089;SDS011;23904;52.322;10.232;2023-12-20T12:20:30;9.60;;;2.25;;
38089;SDS011;23904;52.322;10.232;2023-12-20T12:25:29;6.60;;;1.50;;
38089;SDS011;23904;52.322;10.232;2023-12-20T12:27:58;5.80;;;1.17;;
38089;SDS011;23904;52.322;10.232;2023-12-20T12:30:24;3.20;;;0.80;;
38089;SDS011;23904;52.322;10.232;2023-12-20T12:32:51;4.80;;;0.80;;
38089;SDS011;23904;52.322;10.232;2023-12-20T12:35:18;5.50;;;1.10;;
38089;SDS011;23904;52.322;10.232;2023-12-20T12:37:46;7.30;;;1.38;;
38089;SDS011;23904;52.322;10.232;2023-12-20T12:40:12;5.78;;;0.95;;
38089;SDS011;23904;52.322;10.232;2023-12-20T12:42:39;3.90;;;0.70;;
38089;SDS011;23904;52.322;10.232;2023-12-20T12:45:06;7.13;;;1.20;;
38089;SDS011;23904;52.322;10.232;2023-12-20T12:47:33;4.00;;;0.65;;
38089;SDS011;23904;52.322;10.232;2023-12-20T12:49:59;4.72;;;0.95;;
38089;SDS011;23904;52.322;10.232;2023-12-20T12:52:25;10.25;;;1.27;;
38089;SDS011;23904;52.322;10.232;2023-12-20T12:54:52;5.57;;;0.73;;
38089;SDS011;23904;52.322;10.232;2023-12-20T12:57:18;5.15;;;0.90;;
38089;SDS011;23904;52.322;10.232;2023-12-20T12:59:44;7.10;;;0.68;;
38089;SDS011;23904;52.322;10.232;2023-12-20T13:02:13;3.75;;;0.73;;
38089;SDS011;23904;52.322;10.232;2023-12-20T13:04:40;4.80;;;0.57;;
38089;SDS011;23904;52.322;10.232;2023-12-20T13:07:07;9.90;;;1.08;;
38089;SDS011;23904;52.322;10.232;2023-12-20T13:09:35;3.40;;;0.82;;
38089;SDS011;23904;52.322;10.232;2023-12-20T13:12:01;5.03;;;0.93;;
38089;SDS011;23904;52.322;10.232;2023-12-20T13:14:28;4.90;;;1.10;;
38089;SDS011;23904;52.322;10.232;2023-12-20T13:16:57;4.82;;;0.88;;
38089;SDS011;23904;52.322;10.232;2023-12-20T13:19:23;5.68;;;1.42;;
38089;SDS011;23904;52.322;10.232;2023-12-20T13:21:49;4.85;;;0.75;;
38089;SDS011;23904;52.322;10.232;2023-12-20T13:24:14;4.07;;;0.98;;
38089;SDS011;23904;52.322;10.232;2023-12-20T13:26:40;6.03;;;1.60;;
38089;SDS011;23904;52.322;10.232;2023-12-20T13:29:05;4.57;;;1.00;;
38089;SDS011;23904;52.322;10.232;2023-12-20T13:31:31;6.38;;;0.98;;
38089;SDS011;23904;52.322;10.232;2023-12-20T13:33:57;9.13;;;1.00;;
38089;SDS011;23904;52.322;10.232;2023-12-20T13:36:22;7.47;;;0.93;;
38089;SDS011;23904;52.322;10.232;2023-12-20T13:38:48;5.10;;;1.00;;
38089;SDS011;23904;52.322;10.232;2023-12-20T13:41:16;5.45;;;1.08;;
38089;SDS011;23904;52.322;10.232;2023-12-20T13:43:41;5.22;;;0.82;;
38089;SDS011;23904;52.322;10.232;2023-12-20T13:46:07;7.13;;;1.25;;
38089;SDS011;23904;52.322;10.232;2023-12-20T13:48:34;12.90;;;1.38;;
38089;SDS011;23904;52.322;10.232;2023-12-20T13:51:00;6.65;;;1.35;;
38089;SDS011;23904;52.322;10.232;2023-12-20T13:53:25;10.27;;;1.23;;
38089;SDS011;23904;52.322;10.232;2023-12-20T13:55:51;8.18;;;1.17;;
38089;SDS011;23904;52.322;10.232;2023-12-20T13:58:16;6.82;;;0.90;;
38089;SDS011;23904;52.322;10.232;2023-12-20T14:00:42;7.90;;;1.15;;
38089;SDS011;23904;52.322;10.232;2023-12-20T14:03:07;7.13;;;0.90;;
38089;SDS011;23904;52.322;10.232;2023-12-20T14:05:35;6.30;;;0.90;;
38089;SDS011;23904;52.322;10.232;2023-12-20T14:08:00;5.65;;;1.02;;
38089;SDS011;23904;52.322;10.232;2023-12-20T14:10:26;5.38;;;1.10;;
38089;SDS011;23904;52.322;10.232;2023-12-20T14:12:52;6.32;;;1.10;;
38089;SDS011;23904;52.322;10.232;2023-12-20T14:15:19;3.15;;;1.13;;
38089;SDS011;23904;52.322;10.232;2023-12-20T14:17:44;2.38;;;1.05;;
38089;SDS011;23904;52.322;10.232;2023-12-20T14:20:10;8.82;;;1.23;;
38089;SDS011;23904;52.322;10.232;2023-12-20T14:22:39;11.27;;;1.63;;
38089;SDS011;23904;52.322;10.232;2023-12-20T14:25:12;6.45;;;1.15;;
38089;SDS011;23904;52.322;10.232;2023-12-20T14:27:42;6.75;;;0.85;;